SLTZ weather

Tupiza Airport
Sud Chichas, Potosí Department, Bolivia

Public forecast

Using degrees Celsius for public forecast. Weather courtesy of forecast.io.

Closest aviation weather report (METAR) to Tupiza Airport

Closest report is Capitan Oriel Lea Plaza Airport, 52.6 nm (97.5 km) ESE. Retrieved 2019/10/19 03:00 UTC (20 minutes ago):

SLTJ 190300Z 13005KT 5000 -DZ SCT010 BKN018 OVC070 11/09 Q1025

Closest aviation forecast (TAF) to Tupiza Airport

Closest forecast is Capitan Oriel Lea Plaza Airport, 52.6 nm (97.5 km) ESE. Retrieved 2019-10-19 00:50 UTC (2 hours ago):

TAF SLTJ 182250Z 1900/1924 00000KT 9999 BKN023 OVC070 TX18/1919Z TN13/1911Z TEMPO 1905/1907 8000 RA BECMG 1909/1911 15008KT